Historyczne dane pomiarowe

Dodano dane terminowe – wersja testowa.

Dane z okresu 1951-2019

Wersja bazy: 1.34 [2019-03-16, lista zmian], aktualizacja planowana na 2019-04-15

Dane meteo z obszaru Polski uzyskane na podstawie danych udostępnionych przez Instytut Meteorologii i Gospodarki Wodnej – Państwowy Instytut Badawczy.

 

Wybierz Datę:    

       

TemperaturaWilgotnośćWiatrCiśnienieOpadyŚniegCzas trwania zjawisk
 Stacja t tx tn tng RH VA  wxwx mslp ppp RRR   cm mm wxwxwxwxwxwxwx
1999-08-14 15.5 20.3 11.5- 67.3- 3.7 3.7---- 0.0------------
1999-08-13 15.5 20.0 10.8- 69.5- 6.7 2.3---- 0.0------------
1999-08-12 16.3 19.9 14.3- 83.0- 7.3 3.0---- 0.1------------
1999-08-11 19.8 23.9 17.0- 80.5- 7.0 2.0---- 4.2------------
1999-08-10 21.0 28.8 15.9- 88.3- 7.3 2.3---- 16.3------------
1999-08-09 22.6 30.7 16.8- 75.3- 3.0 1.3---- 2.2------------
1999-08-08 22.2 28.9 16.6- 77.8- 4.7 1.3---- 0.0------------
1999-08-07 21.3 29.0 13.7- 70.5- 3.7 2.3---- 0.0------------
1999-08-06 20.9 27.4 16.2- 78.0- 6.7 2.7---- 0.0------------
1999-08-05 17.6 25.4 9.8- 73.0- 3.7 1.3---- 3.8------------
1999-08-04 16.8 23.9 9.4- 73.8- 2.7 1.0---- 0.0------------
1999-08-03 15.8 22.4 10.0- 83.8- 8.0 1.0---- 0.2------------
1999-08-02 15.4 19.4 11.2- 85.8- 7.7 1.3---- 0.4------------
1999-08-01 16.7 22.5 12.3- 85.0- 6.3 0.3---- 0.3------------
1999-07-31 17.6 24.4 9.7- 63.8- 4.0 1.7---- 0.0------------
1999-07-30 17.9 24.6 9.6- 58.3- 3.0 2.3---- 0.0------------
1999-07-29 17.8 23.7 13.2- 72.8- 5.7 3.3---- 0.0------------
1999-07-28 19.4 24.7 16.0- 72.3- 5.7 1.7---- 0.0------------
1999-07-27 19.9 24.4 17.5- 91.8- 2.0 2.0---- 0.0------------
1999-07-26 20.2 27.3 12.5- 83.0- 6.3 1.7---- 5.0------------
1999-07-25 18.8 23.9 12.4- 69.5- 4.3 1.0---- 0.0------------
1999-07-24 16.7 20.9 13.4- 85.0- 7.0 2.3---- 0.0------------
1999-07-23 15.6 19.4 13.3- 93.5- 7.7 1.0---- 10.3------------
1999-07-22 20.7 24.1 17.1- 66.3- 6.7 3.0---- 5.2------------
1999-07-21 22.6 29.4 15.7- 60.3- 4.7 3.7---- 0.0------------
1999-07-20 22.3 29.3 14.3- 59.3- 1.7 2.0---- 0.0------------
1999-07-19 20.0 27.8 11.3- 64.0- 3.0 1.0---- 0.0------------
1999-07-18 18.3 25.1 9.9- 64.8- 3.3 1.0---- 0.0------------
1999-07-17 16.9 22.4 11.0- 73.0- 5.3 1.3---- 0.0------------
1999-07-16 17.2 22.4 12.0- 69.0- 5.7 1.7---- 0.0------------
1999-07-15 17.8 22.4 15.4- 74.5- 5.3 3.3---- 0.0------------
1999-07-14 21.0 26.7 17.8- 79.8- 6.7 3.0---- 12.6------------
1999-07-13 20.2 24.3 17.2- 91.3- 6.7 2.7---- 23.3------------
1999-07-12 21.1 27.3 15.7- 79.5- 5.7 3.0---- 2.7------------
1999-07-11 19.6 23.1 16.4- 79.0- 6.7 1.0---- 4.2------------
1999-07-10 20.0 23.9 17.3- 79.5- 7.3 3.0---- 0.0------------
1999-07-09 20.0 23.1 16.9- 93.8- 8.0 3.0---- 0.1------------
1999-07-08 19.5 22.4 17.5- 94.8- 8.0 2.3---- 19.4------------
1999-07-07 22.7 27.4 19.5- 82.8- 6.0 2.0---- 3.5------------
1999-07-06 25.9 32.4 19.3- 58.5- 1.3 3.0---- 0.0------------
1999-07-05 24.2 31.7 15.4- 62.3- 1.3 3.0---- 0.0------------
1999-07-04 23.2 29.9 14.9- 62.0- 0.7 0.0---- 0.0------------
1999-07-03 21.5 25.6 16.3- 68.5- 2.0 1.3---- 0.0------------
1999-07-02 20.7 25.0 16.9- 75.3- 5.7 1.3---- 0.0------------
1999-07-01 18.8 25.5 11.6- 74.0- 6.0 2.3---- 0.0------------
1999-06-30 19.8 25.3 12.5- 71.8- 6.0 1.0---- 0.0------------
1999-06-29 19.7 24.1 14.7- 68.3- 3.0 3.3---- 0.0------------
1999-06-28 20.5 28.2 12.2- 62.0- 4.7 1.0---- 0.0------------
1999-06-27 20.5 27.1 13.2- 59.5- 2.0 3.0---- 0.0------------
1999-06-26 16.4 23.7 7.8- 62.8- 3.0 3.0---- 0.0------------
1999-06-25 13.4 19.4 6.1- 66.0- 2.0 1.0---- 0.0------------
1999-06-24 11.8 14.1 9.6- 86.5- 8.0 0.7---- 0.0------------
1999-06-23 9.3 11.0 7.0- 95.3- 8.0 5.7---- 8.7------------
1999-06-22 11.5 16.7 8.7- 96.8- 8.0 7.0---- 51.1------------
1999-06-21 18.0 22.4 14.8- 89.5- 6.7 0.0---- 43.7------------
1999-06-20 18.4 21.6 15.4- 80.8- 7.7 1.7---- 1.2------------
1999-06-19 16.4 18.8 13.9- 84.3- 7.0 4.3---- 0.0------------
1999-06-18 18.4 22.4 15.4- 90.0- 7.7 2.0---- 2.4------------
1999-06-17 18.8 22.9 16.8- 92.0- 7.0 2.0---- 21.9------------
1999-06-16 17.8 21.1 15.4- 93.8- 7.7 1.7---- 3.1------------
651.4 ms

 

Źródłem pochodzenia danych jest Instytut Meteorologii i Gospodarki Wodnej – Państwowy Instytut Badawczy. Dane Instytutu Meteorologii i Gospodarki Wodnej – Państwowego Instytutu Badawczego zostały przetworzone.

Dane źródłowe można odnaleźć na stronie https://dane.imgw.pl